createdAt,value
2023-05-04T00:01:27.397Z,59.54
2023-05-04T00:03:57.468Z,59.74
2023-05-04T00:06:27.136Z,60.79
2023-05-04T00:08:57.062Z,62.43
2023-05-04T00:11:26.063Z,62.44
2023-05-04T00:13:55.664Z,62.24
2023-05-04T00:16:26.483Z,62.60
2023-05-04T00:18:59.014Z,63.05
2023-05-04T00:21:28.418Z,61.96
2023-05-04T00:23:59.234Z,62.55
2023-05-04T00:26:30.542Z,62.58
2023-05-04T00:28:59.458Z,62.12
2023-05-04T00:31:30.415Z,61.13
2023-05-04T00:34:00.074Z,62.74
2023-05-04T00:36:30.099Z,61.39
2023-05-04T00:39:00.022Z,61.76
2023-05-04T00:41:28.937Z,62.80
2023-05-04T00:44:00.144Z,62.90
2023-05-04T00:46:29.692Z,63.38
2023-05-04T00:49:00.390Z,62.77
2023-05-04T00:51:31.505Z,62.55
2023-05-04T00:54:00.946Z,63.04
2023-05-04T00:56:33.627Z,63.98
2023-05-04T00:59:03.545Z,62.40
2023-05-04T01:01:32.809Z,62.92
2023-05-04T01:04:03.150Z,62.29
2023-05-04T01:06:42.485Z,62.81
2023-05-04T01:09:24.919Z,62.13
2023-05-04T01:12:19.422Z,64.50
2023-05-04T01:14:50.699Z,64.22
2023-05-04T01:17:20.817Z,63.75
2023-05-04T01:19:54.338Z,63.96
2023-05-04T01:22:25.109Z,63.30
2023-05-04T01:24:57.482Z,63.58
2023-05-04T01:28:13.921Z,64.35
2023-05-04T01:30:52.548Z,64.39
2023-05-04T01:33:23.965Z,64.88
2023-05-04T01:35:53.766Z,65.83
2023-05-04T01:38:23.314Z,65.52
2023-05-04T01:40:52.685Z,65.74
2023-05-04T01:43:22.803Z,66.00
2023-05-04T01:45:52.492Z,65.63
2023-05-04T01:48:24.900Z,66.70
2023-05-04T01:50:56.942Z,66.53
2023-05-04T01:53:27.172Z,66.47
2023-05-04T01:55:56.774Z,66.95
2023-05-04T01:58:27.415Z,66.44
2023-05-04T02:01:00.005Z,66.19
2023-05-04T02:03:31.751Z,65.76
2023-05-04T02:06:01.675Z,66.59
2023-05-04T02:08:31.583Z,66.05
2023-05-04T02:11:03.985Z,65.32
2023-05-04T02:13:34.182Z,65.82
2023-05-04T02:16:05.856Z,65.72
2023-05-04T02:18:36.484Z,66.28
2023-05-04T02:21:09.017Z,66.98
2023-05-04T02:23:42.109Z,66.66
2023-05-04T02:26:13.496Z,66.26
2023-05-04T02:28:43.723Z,65.94
2023-05-04T02:31:14.307Z,66.35
2023-05-04T02:33:44.849Z,65.91
2023-05-04T02:36:14.880Z,65.87
2023-05-04T02:38:47.166Z,66.42
2023-05-04T02:41:20.014Z,66.70
2023-05-04T02:43:50.299Z,66.18
2023-05-04T02:46:20.440Z,67.08
2023-05-04T02:48:49.901Z,66.51
2023-05-04T02:51:20.799Z,66.90
2023-05-04T02:53:50.451Z,67.41
2023-05-04T02:56:20.249Z,66.71
2023-05-04T02:58:50.752Z,66.81
2023-05-04T03:01:21.490Z,67.70
2023-05-04T03:03:53.796Z,67.56
2023-05-04T03:06:26.062Z,66.90
2023-05-04T03:08:56.888Z,66.17
2023-05-04T03:11:27.433Z,65.40
2023-05-04T03:13:57.436Z,65.68
2023-05-04T03:16:27.216Z,66.17
2023-05-04T03:18:57.503Z,66.56
2023-05-04T03:21:28.426Z,66.89
2023-05-04T03:24:00.381Z,66.13
2023-05-04T03:26:32.795Z,66.30
2023-05-04T03:29:03.736Z,66.89
2023-05-04T03:31:33.664Z,66.99
2023-05-04T03:34:04.034Z,66.60
2023-05-04T03:36:34.474Z,66.60
2023-05-04T03:39:04.253Z,67.10
2023-05-04T03:41:34.403Z,66.88
2023-05-04T03:44:05.034Z,66.69
2023-05-04T03:46:34.850Z,66.40
2023-05-04T03:49:04.355Z,66.44
2023-05-04T03:51:34.474Z,66.77
2023-05-04T03:54:04.479Z,66.76
2023-05-04T03:56:35.622Z,66.74
2023-05-04T03:59:06.366Z,66.18
2023-05-04T04:01:36.795Z,66.61
2023-05-04T04:04:07.651Z,67.22
2023-05-04T04:06:39.998Z,66.22
2023-05-04T04:09:11.475Z,66.73
2023-05-04T04:11:41.043Z,66.43
2023-05-04T04:14:12.028Z,65.95
2023-05-04T04:16:41.982Z,66.18
2023-05-04T04:19:13.474Z,66.37
2023-05-04T04:21:46.456Z,66.28
2023-05-04T04:24:16.767Z,65.78
2023-05-04T04:26:49.259Z,66.23
2023-05-04T04:29:20.096Z,66.60
2023-05-04T04:31:50.489Z,66.63
2023-05-04T04:34:20.746Z,66.40
2023-05-04T04:36:51.786Z,66.81
2023-05-04T04:39:23.074Z,66.15
2023-05-04T04:41:59.088Z,65.63
2023-05-04T04:44:30.124Z,65.63
2023-05-04T04:46:59.983Z,66.00
2023-05-04T04:49:29.756Z,65.91
2023-05-04T04:51:59.249Z,65.70
2023-05-04T04:54:29.384Z,66.72
2023-05-04T04:57:03.187Z,66.06
2023-05-04T04:59:32.616Z,65.63
2023-05-04T05:02:03.559Z,66.06
2023-05-04T05:04:33.656Z,65.77
2023-05-04T05:07:03.017Z,65.47
2023-05-04T05:09:32.462Z,65.24
2023-05-04T05:12:02.737Z,64.66
2023-05-04T05:14:32.285Z,64.39
2023-05-04T05:17:04.526Z,64.37
2023-05-04T05:19:37.829Z,64.22
2023-05-04T05:22:08.996Z,64.25
2023-05-04T05:24:38.107Z,64.75
2023-05-04T05:27:09.247Z,64.61
2023-05-04T05:29:39.170Z,64.19
2023-05-04T05:32:09.265Z,64.77
2023-05-04T05:34:40.738Z,65.04
2023-05-04T05:37:10.339Z,65.00
2023-05-04T05:39:40.341Z,64.11
2023-05-04T05:42:10.123Z,62.26
2023-05-04T05:44:40.013Z,62.34
2023-05-04T05:47:09.663Z,61.94
2023-05-04T05:49:42.998Z,60.74
2023-05-04T05:52:13.818Z,60.88
2023-05-04T05:54:43.221Z,59.93
2023-05-04T05:57:13.446Z,59.56
2023-05-04T05:59:45.302Z,59.13
2023-05-04T06:02:15.585Z,59.15
2023-05-04T06:04:48.662Z,59.38
2023-05-04T06:07:19.996Z,58.78
2023-05-04T06:09:49.374Z,58.08
2023-05-04T06:12:18.264Z,57.61
2023-05-04T06:14:48.497Z,57.64
2023-05-04T06:17:19.201Z,57.43
2023-05-04T06:19:50.918Z,56.86
2023-05-04T06:22:24.662Z,56.38
2023-05-04T06:24:56.326Z,55.58
2023-05-04T06:27:33.178Z,55.45
2023-05-04T06:30:04.535Z,55.30
2023-05-04T06:32:34.626Z,56.03
2023-05-04T06:35:06.087Z,55.90
2023-05-04T06:37:36.054Z,55.08
2023-05-04T06:40:16.062Z,55.43
2023-05-04T06:42:46.770Z,55.71
2023-05-04T06:45:20.621Z,56.27
2023-05-04T06:47:52.824Z,56.65
2023-05-04T06:50:24.431Z,56.65
2023-05-04T06:53:10.872Z,56.24
2023-05-04T06:55:40.372Z,56.23
2023-05-04T06:58:09.792Z,57.00
2023-05-04T07:00:42.067Z,56.98
2023-05-04T07:03:12.231Z,57.24
2023-05-04T07:05:45.289Z,57.03
2023-05-04T07:08:15.594Z,56.80
2023-05-04T07:10:45.451Z,56.68
2023-05-04T07:13:16.475Z,56.34
2023-05-04T07:15:45.739Z,56.24
2023-05-04T07:18:15.155Z,55.90
2023-05-04T07:20:49.243Z,55.75
2023-05-04T07:23:19.565Z,55.51
2023-05-04T07:25:50.101Z,55.37
2023-05-04T07:28:21.260Z,55.01
2023-05-04T07:30:50.548Z,54.93
2023-05-04T07:33:21.105Z,54.10
2023-05-04T07:35:50.993Z,54.20
2023-05-04T07:38:20.809Z,54.23
2023-05-04T07:40:49.801Z,54.65
2023-05-04T07:43:18.900Z,54.50
2023-05-04T07:45:50.901Z,53.91
2023-05-04T07:48:21.700Z,53.44
2023-05-04T07:50:53.110Z,53.60
2023-05-04T07:53:27.062Z,53.68
2023-05-04T07:56:01.288Z,53.89
2023-05-04T07:58:33.346Z,53.41
2023-05-04T08:01:04.431Z,53.78
2023-05-04T08:03:34.104Z,54.24
2023-05-04T08:06:06.484Z,54.37
2023-05-04T08:08:36.385Z,55.21
2023-05-04T08:11:18.778Z,55.45
2023-05-04T08:13:52.304Z,56.20
2023-05-04T08:16:28.447Z,56.60
2023-05-04T08:18:57.967Z,57.28
2023-05-04T08:21:28.655Z,56.97
2023-05-04T08:24:00.912Z,57.17
2023-05-04T08:26:32.614Z,57.24
2023-05-04T08:29:11.080Z,57.65
2023-05-04T08:31:43.586Z,57.45
2023-05-04T08:34:13.620Z,58.27
2023-05-04T08:36:43.174Z,58.63
2023-05-04T08:39:13.554Z,59.08
2023-05-04T08:41:44.222Z,60.04
2023-05-04T08:44:14.242Z,59.69
2023-05-04T08:46:54.075Z,60.24
2023-05-04T08:49:25.662Z,61.34
2023-05-04T08:51:58.263Z,61.72
2023-05-04T08:54:30.577Z,62.93
2023-05-04T08:57:03.090Z,63.54
2023-05-04T08:59:39.164Z,64.52
2023-05-04T09:02:12.615Z,64.02
2023-05-04T09:04:44.046Z,63.83
2023-05-04T09:07:19.339Z,64.63
2023-05-04T09:09:53.424Z,65.21
2023-05-04T09:12:28.605Z,66.24
2023-05-04T09:15:02.738Z,66.13
2023-05-04T09:17:32.674Z,66.89
2023-05-04T09:20:05.323Z,67.40
2023-05-04T09:22:35.216Z,67.39
2023-05-04T09:25:08.892Z,67.37
2023-05-04T09:27:42.233Z,67.07
2023-05-04T09:30:13.815Z,67.05
2023-05-04T09:32:47.765Z,66.48
2023-05-04T09:35:29.637Z,64.42
2023-05-04T09:38:05.882Z,63.12
2023-05-04T09:40:43.489Z,60.57
2023-05-04T09:43:14.062Z,60.22
2023-05-04T09:45:48.036Z,60.58
2023-05-04T09:48:18.539Z,60.65
2023-05-04T09:50:53.472Z,61.23
2023-05-04T09:53:25.514Z,61.25
2023-05-04T09:56:20.477Z,62.37
2023-05-04T09:58:58.028Z,62.21
2023-05-04T10:01:31.217Z,62.16
2023-05-04T10:04:01.483Z,63.27
2023-05-04T10:06:32.007Z,63.48
2023-05-04T10:09:02.510Z,63.15
2023-05-04T10:11:36.327Z,62.66
2023-05-04T10:14:10.001Z,62.34
2023-05-04T10:16:45.964Z,61.50
2023-05-04T10:19:28.853Z,61.00
2023-05-04T10:22:35.236Z,60.67
2023-05-04T10:25:32.732Z,60.49
2023-05-04T10:28:25.608Z,60.47
2023-05-04T10:30:59.979Z,60.35
2023-05-04T10:33:44.069Z,60.12
2023-05-04T10:36:16.359Z,59.70
2023-05-04T10:38:46.825Z,59.76
2023-05-04T10:41:22.267Z,59.83
2023-05-04T10:44:04.205Z,59.83
2023-05-04T10:46:33.832Z,60.11
2023-05-04T10:49:17.191Z,59.63
2023-05-04T10:51:49.538Z,59.56
2023-05-04T10:54:20.376Z,59.10
2023-05-04T10:56:50.025Z,58.80
2023-05-04T10:59:19.532Z,58.71
2023-05-04T11:01:51.415Z,59.07
2023-05-04T11:04:22.825Z,58.00
2023-05-04T11:07:03.052Z,57.40
2023-05-04T11:09:42.759Z,56.24
2023-05-04T11:12:15.534Z,56.36
2023-05-04T11:14:45.007Z,56.32
2023-05-04T11:19:53.108Z,56.55
2023-05-04T11:22:23.305Z,56.52
2023-05-04T11:24:56.312Z,56.59
2023-05-04T11:27:30.884Z,56.48
2023-05-04T11:30:03.539Z,55.61
2023-05-04T11:32:39.958Z,55.52
2023-05-04T11:35:17.080Z,55.46
2023-05-04T11:37:47.917Z,54.76
2023-05-04T11:40:25.170Z,54.43
2023-05-04T11:42:57.436Z,54.33
2023-05-04T11:45:33.063Z,54.42
2023-05-04T11:48:04.735Z,53.91
2023-05-04T11:50:41.170Z,53.59
2023-05-04T11:53:14.315Z,53.54
2023-05-04T11:55:43.574Z,53.49
2023-05-04T11:58:12.931Z,52.86
2023-05-04T12:00:49.925Z,51.74
2023-05-04T12:03:32.648Z,51.20
2023-05-04T12:06:14.546Z,51.89
2023-05-04T12:08:47.834Z,51.97
2023-05-04T12:11:26.379Z,52.06
2023-05-04T12:14:12.178Z,52.35
2023-05-04T12:16:43.533Z,51.76
2023-05-04T12:19:13.561Z,52.18
2023-05-04T12:21:54.406Z,52.34
2023-05-04T12:24:28.612Z,53.18
2023-05-04T12:26:58.535Z,53.57
2023-05-04T12:29:28.312Z,53.25
2023-05-04T12:32:00.026Z,53.37
2023-05-04T12:34:30.754Z,53.39
2023-05-04T12:37:00.193Z,53.53
2023-05-04T12:39:32.684Z,53.65
2023-05-04T12:42:02.000Z,53.76
2023-05-04T12:44:31.809Z,53.67
2023-05-04T12:47:01.937Z,53.49
2023-05-04T12:49:32.496Z,53.71
2023-05-04T12:52:01.849Z,53.74
2023-05-04T12:54:31.733Z,53.64
2023-05-04T12:57:03.733Z,53.90
2023-05-04T12:59:35.378Z,54.21
2023-05-04T13:02:06.049Z,54.29
2023-05-04T13:04:35.837Z,53.98
2023-05-04T13:07:07.158Z,54.01
2023-05-04T13:09:37.129Z,53.74
2023-05-04T13:12:08.134Z,53.63
2023-05-04T13:14:39.810Z,53.86
2023-05-04T13:17:11.542Z,53.84
2023-05-04T13:19:41.077Z,53.87
2023-05-04T13:22:11.385Z,53.40
2023-05-04T13:24:41.527Z,53.41
2023-05-04T13:27:12.291Z,53.23
2023-05-04T13:29:42.041Z,53.19
2023-05-04T13:32:11.894Z,53.52
2023-05-04T13:34:43.980Z,53.52
2023-05-04T13:37:18.916Z,53.62
2023-05-04T13:39:49.374Z,53.52
2023-05-04T13:42:19.115Z,53.74
2023-05-04T13:44:49.267Z,53.41
2023-05-04T13:47:18.571Z,53.78
2023-05-04T13:49:49.695Z,53.61
2023-05-04T13:52:20.055Z,53.28
2023-05-04T13:54:50.615Z,52.82
2023-05-04T13:57:20.437Z,53.01
2023-05-04T14:00:05.084Z,53.17
2023-05-04T14:02:42.344Z,52.95
2023-05-04T14:05:12.337Z,53.11
2023-05-04T14:07:45.311Z,53.73
2023-05-04T14:10:15.588Z,54.25
2023-05-04T14:12:46.098Z,53.81
2023-05-04T14:15:16.933Z,54.15
2023-05-04T14:17:46.458Z,54.25
2023-05-04T14:20:19.862Z,54.26
2023-05-04T14:22:50.743Z,55.02
2023-05-04T14:25:22.059Z,55.17
2023-05-04T14:27:54.399Z,55.11
2023-05-04T14:30:25.016Z,55.32
2023-05-04T14:32:56.429Z,55.02
2023-05-04T14:35:26.859Z,55.13
2023-05-04T14:37:56.856Z,55.05
2023-05-04T14:40:26.322Z,54.88
2023-05-04T14:42:58.061Z,54.83
2023-05-04T14:45:33.879Z,54.92
2023-05-04T14:48:04.797Z,54.98
2023-05-04T14:50:34.654Z,55.01
2023-05-04T14:53:04.554Z,55.53
2023-05-04T14:55:35.052Z,55.29
2023-05-04T14:58:05.110Z,55.50
2023-05-04T15:00:40.244Z,55.91
2023-05-04T15:03:10.611Z,55.90
2023-05-04T15:05:40.351Z,55.73
2023-05-04T15:08:10.345Z,55.56
2023-05-04T15:10:42.517Z,55.50
2023-05-04T15:13:16.197Z,55.61
2023-05-04T15:15:46.232Z,55.32
2023-05-04T15:18:16.524Z,55.63
2023-05-04T15:20:46.344Z,55.81
2023-05-04T15:23:18.134Z,56.13
2023-05-04T15:25:48.356Z,56.28
2023-05-04T15:28:18.212Z,56.26
2023-05-04T15:30:48.216Z,56.49
2023-05-04T15:33:17.923Z,56.96
2023-05-04T15:35:51.615Z,57.18
2023-05-04T15:38:21.386Z,57.08
2023-05-04T15:40:51.491Z,57.44
2023-05-04T15:43:21.484Z,58.02
2023-05-04T15:45:54.171Z,57.50
2023-05-04T15:48:24.182Z,57.76
2023-05-04T15:50:55.645Z,57.64
2023-05-04T15:53:25.749Z,57.82
2023-05-04T15:55:56.030Z,57.65
2023-05-04T15:58:26.864Z,57.80
2023-05-04T16:00:56.587Z,57.66
2023-05-04T16:03:26.525Z,57.77
2023-05-04T16:05:57.188Z,57.80
2023-05-04T16:08:27.311Z,57.58
2023-05-04T16:10:58.523Z,57.73
2023-05-04T16:13:28.198Z,57.70
2023-05-04T16:15:58.390Z,58.17
2023-05-04T16:18:28.229Z,57.87
2023-05-04T16:20:58.140Z,58.40
2023-05-04T16:23:28.845Z,59.08
2023-05-04T16:25:59.075Z,59.90
2023-05-04T16:28:31.542Z,60.02
2023-05-04T16:31:06.372Z,60.87
2023-05-04T16:33:36.721Z,61.02
2023-05-04T16:36:07.255Z,60.85
2023-05-04T16:38:36.571Z,60.53
2023-05-04T16:41:06.119Z,60.89
2023-05-04T16:43:37.172Z,62.02
2023-05-04T16:46:11.477Z,61.74
2023-05-04T16:48:41.678Z,62.04
2023-05-04T16:51:10.755Z,61.44
2023-05-04T16:53:40.526Z,62.00
2023-05-04T16:56:19.065Z,61.95
2023-05-04T16:58:49.109Z,61.79
2023-05-04T17:01:19.019Z,62.18
2023-05-04T17:03:48.646Z,62.24
2023-05-04T17:06:19.099Z,61.98
2023-05-04T17:08:48.541Z,62.07
2023-05-04T17:11:21.458Z,62.72
2023-05-04T17:13:51.710Z,62.40
2023-05-04T17:16:24.143Z,62.67
2023-05-04T17:18:54.284Z,62.35
2023-05-04T17:21:25.040Z,63.06
2023-05-04T17:23:54.812Z,62.86
2023-05-04T17:26:24.256Z,63.13
2023-05-04T17:28:54.047Z,62.98
2023-05-04T17:31:23.937Z,63.43
2023-05-04T17:33:58.031Z,63.79
2023-05-04T17:36:28.696Z,63.50
2023-05-04T17:38:58.794Z,63.63
2023-05-04T17:41:29.819Z,64.35
2023-05-04T17:44:00.010Z,64.64
2023-05-04T17:46:30.219Z,65.12
2023-05-04T17:48:59.608Z,64.90
2023-05-04T17:51:29.307Z,65.64
2023-05-04T17:53:59.628Z,65.08
2023-05-04T17:56:29.553Z,65.25
2023-05-04T17:58:59.254Z,65.41
2023-05-04T18:01:29.062Z,65.13
2023-05-04T18:04:04.546Z,65.46
2023-05-04T18:06:33.950Z,65.85
2023-05-04T18:09:04.826Z,65.98
2023-05-04T18:11:34.901Z,65.66
2023-05-04T18:14:05.545Z,66.17
2023-05-04T18:16:38.127Z,66.05
2023-05-04T18:19:07.520Z,65.68
2023-05-04T18:21:38.409Z,65.73
2023-05-04T18:24:08.874Z,65.64
2023-05-04T18:26:39.036Z,66.29
2023-05-04T18:31:47.770Z,66.44
2023-05-04T18:34:16.818Z,66.18
2023-05-04T18:36:48.017Z,67.03
2023-05-04T18:39:19.168Z,66.53
2023-05-04T18:41:48.551Z,68.04
2023-05-04T18:44:18.274Z,67.84
2023-05-04T18:46:49.116Z,68.14
2023-05-04T18:49:19.029Z,68.64
2023-05-04T18:51:48.426Z,68.09
2023-05-04T18:54:18.732Z,68.15
2023-05-04T18:56:48.418Z,68.50
2023-05-04T18:59:17.425Z,68.38
2023-05-04T19:01:47.943Z,69.13
2023-05-04T19:04:19.205Z,69.20
2023-05-04T19:06:54.845Z,69.44
2023-05-04T19:09:24.692Z,68.95
2023-05-04T19:11:54.078Z,69.81
2023-05-04T19:14:23.187Z,69.84
2023-05-04T19:16:52.529Z,70.20
2023-05-04T19:19:22.669Z,70.29
2023-05-04T19:21:53.427Z,70.44
2023-05-04T19:24:23.288Z,70.31
2023-05-04T19:26:53.309Z,70.80
2023-05-04T19:29:23.352Z,71.10
2023-05-04T19:31:53.722Z,71.79
2023-05-04T19:34:23.274Z,71.83
2023-05-04T19:36:54.823Z,71.22
2023-05-04T19:39:23.888Z,71.07
2023-05-04T19:41:53.347Z,71.95
2023-05-04T19:44:22.405Z,72.29
2023-05-04T19:46:52.331Z,71.57
2023-05-04T19:49:22.168Z,71.86
2023-05-04T19:51:52.049Z,71.98
2023-05-04T19:54:22.216Z,71.89
2023-05-04T19:56:53.363Z,73.12
2023-05-04T19:59:22.980Z,72.97
2023-05-04T20:01:52.178Z,72.35
2023-05-04T20:04:23.429Z,71.59
2023-05-04T20:06:53.065Z,70.78
2023-05-04T20:09:22.043Z,71.87
2023-05-04T20:11:51.956Z,72.68
2023-05-04T20:14:21.450Z,72.63
2023-05-04T20:16:52.753Z,72.61
2023-05-04T20:19:22.524Z,73.28
2023-05-04T20:21:51.747Z,73.30
2023-05-04T20:24:22.743Z,73.53
2023-05-04T20:26:55.139Z,73.71
2023-05-04T20:29:26.815Z,73.45
2023-05-04T20:31:56.499Z,73.77
2023-05-04T20:34:28.543Z,73.70
2023-05-04T20:36:57.948Z,74.26
2023-05-04T20:39:28.805Z,74.03
2023-05-04T20:41:59.020Z,74.01
2023-05-04T20:44:28.370Z,73.77
2023-05-04T20:46:57.393Z,74.01
2023-05-04T20:49:26.580Z,74.45
2023-05-04T20:51:56.462Z,73.95
2023-05-04T20:54:26.524Z,74.60
2023-05-04T20:57:02.152Z,74.49
2023-05-04T20:59:32.140Z,74.48
2023-05-04T21:02:02.109Z,74.52
2023-05-04T21:04:31.647Z,74.98
2023-05-04T21:07:01.636Z,74.05
2023-05-04T21:09:30.698Z,74.65
2023-05-04T21:12:00.191Z,75.92
2023-05-04T21:14:30.160Z,76.23
2023-05-04T21:17:00.734Z,75.20
2023-05-04T21:19:30.327Z,75.24
2023-05-04T21:21:59.143Z,76.02
2023-05-04T21:24:28.738Z,75.66
2023-05-04T21:26:58.268Z,75.10
2023-05-04T21:29:29.869Z,75.88
2023-05-04T21:31:59.536Z,76.22
2023-05-04T21:34:29.136Z,76.66
2023-05-04T21:36:58.314Z,77.12
2023-05-04T21:39:27.227Z,76.36
2023-05-04T21:41:56.399Z,75.53
2023-05-04T21:44:25.831Z,75.16
2023-05-04T21:46:56.463Z,76.09
2023-05-04T21:49:26.341Z,76.62
2023-05-04T21:51:55.357Z,77.48
2023-05-04T21:54:26.245Z,78.14
2023-05-04T21:56:56.328Z,77.85
2023-05-04T21:59:26.929Z,77.91
2023-05-04T22:01:56.909Z,78.13
2023-05-04T22:04:26.603Z,77.69
2023-05-04T22:06:56.164Z,77.72
2023-05-04T22:09:26.714Z,77.58
2023-05-04T22:11:56.153Z,78.13
2023-05-04T22:14:26.524Z,78.06
2023-05-04T22:16:56.929Z,77.69
2023-05-04T22:19:27.124Z,77.41
2023-05-04T22:21:57.080Z,77.36
2023-05-04T22:24:27.397Z,77.64
2023-05-04T22:26:57.651Z,78.05
2023-05-04T22:32:27.955Z,77.91
2023-05-04T22:34:58.338Z,78.03
2023-05-04T22:37:27.886Z,77.95
2023-05-04T22:39:57.548Z,78.03
2023-05-04T22:42:27.473Z,78.42
2023-05-04T22:44:57.568Z,78.17
2023-05-04T22:47:27.553Z,77.18
2023-05-04T22:49:57.682Z,76.94
2023-05-04T22:52:27.499Z,77.30
2023-05-04T22:54:56.932Z,77.97
2023-05-04T22:57:26.456Z,79.02
2023-05-04T22:59:56.003Z,78.51
2023-05-04T23:02:25.781Z,78.51
2023-05-04T23:04:58.588Z,79.33
2023-05-04T23:07:28.156Z,78.84
2023-05-04T23:09:57.241Z,78.61
2023-05-04T23:12:28.047Z,78.71
2023-05-04T23:14:58.233Z,78.78
2023-05-04T23:17:28.342Z,78.42
2023-05-04T23:19:58.971Z,78.47
2023-05-04T23:22:28.491Z,78.29
2023-05-04T23:24:57.205Z,78.39
2023-05-04T23:27:27.783Z,78.27
2023-05-04T23:29:57.047Z,78.80
2023-05-04T23:32:26.713Z,79.44
2023-05-04T23:34:57.447Z,80.36
2023-05-04T23:37:28.354Z,80.05
2023-05-04T23:39:58.085Z,80.01
2023-05-04T23:42:28.395Z,79.64
2023-05-04T23:44:57.930Z,79.58
2023-05-04T23:47:27.498Z,80.37
2023-05-04T23:49:56.931Z,80.20
2023-05-04T23:52:26.856Z,80.62
2023-05-04T23:54:57.090Z,81.10
2023-05-04T23:57:26.763Z,81.07
2023-05-04T23:59:56.305Z,80.66
